sensor_id;sensor_type;location;lat;lon;timestamp;temperature;humidity
439;DHT22;206;48.782;9.252;2023-09-18T00:02:20;23.50;34.30
439;DHT22;206;48.782;9.252;2023-09-18T00:04:46;23.50;34.50
439;DHT22;206;48.782;9.252;2023-09-18T00:07:11;23.50;34.60
439;DHT22;206;48.782;9.252;2023-09-18T00:09:37;23.50;34.90
439;DHT22;206;48.782;9.252;2023-09-18T00:12:03;23.50;35.00
439;DHT22;206;48.782;9.252;2023-09-18T00:14:29;23.40;35.50
439;DHT22;206;48.782;9.252;2023-09-18T00:16:54;23.40;35.50
439;DHT22;206;48.782;9.252;2023-09-18T00:19:22;23.40;35.50
439;DHT22;206;48.782;9.252;2023-09-18T00:21:49;23.30;35.40
439;DHT22;206;48.782;9.252;2023-09-18T00:24:14;23.30;35.40
439;DHT22;206;48.782;9.252;2023-09-18T00:26:40;23.30;35.40
439;DHT22;206;48.782;9.252;2023-09-18T00:29:05;23.30;35.40
439;DHT22;206;48.782;9.252;2023-09-18T00:31:31;23.30;35.40
439;DHT22;206;48.782;9.252;2023-09-18T00:33:56;23.30;35.40
439;DHT22;206;48.782;9.252;2023-09-18T00:36:22;23.30;35.40
439;DHT22;206;48.782;9.252;2023-09-18T00:38:48;23.30;35.40
439;DHT22;206;48.782;9.252;2023-09-18T00:41:13;23.30;35.40
439;DHT22;206;48.782;9.252;2023-09-18T00:43:39;23.30;35.40
439;DHT22;206;48.782;9.252;2023-09-18T00:46:05;23.30;35.40
439;DHT22;206;48.782;9.252;2023-09-18T00:48:31;23.40;35.50
439;DHT22;206;48.782;9.252;2023-09-18T00:50:56;23.40;35.50
439;DHT22;206;48.782;9.252;2023-09-18T00:53:23;23.40;35.50
439;DHT22;206;48.782;9.252;2023-09-18T00:55:54;23.40;35.50
439;DHT22;206;48.782;9.252;2023-09-18T00:58:20;23.40;35.40
439;DHT22;206;48.782;9.252;2023-09-18T01:00:46;23.40;35.50
439;DHT22;206;48.782;9.252;2023-09-18T01:03:11;23.40;35.50
439;DHT22;206;48.782;9.252;2023-09-18T01:05:37;23.40;35.50
439;DHT22;206;48.782;9.252;2023-09-18T01:08:03;23.40;35.50
439;DHT22;206;48.782;9.252;2023-09-18T01:10:34;23.40;35.40
439;DHT22;206;48.782;9.252;2023-09-18T01:13:12;23.40;35.50
439;DHT22;206;48.782;9.252;2023-09-18T01:15:49;23.40;35.50
439;DHT22;206;48.782;9.252;2023-09-18T01:18:17;23.40;35.50
439;DHT22;206;48.782;9.252;2023-09-18T01:20:44;23.30;35.40
439;DHT22;206;48.782;9.252;2023-09-18T01:23:10;23.20;35.80
439;DHT22;206;48.782;9.252;2023-09-18T01:25:37;23.20;36.40
439;DHT22;206;48.782;9.252;2023-09-18T01:28:03;23.20;36.20
439;DHT22;206;48.782;9.252;2023-09-18T01:30:29;23.20;36.60
439;DHT22;206;48.782;9.252;2023-09-18T01:32:56;23.10;37.60
439;DHT22;206;48.782;9.252;2023-09-18T01:35:24;23.00;38.10
439;DHT22;206;48.782;9.252;2023-09-18T01:37:56;22.90;38.30
439;DHT22;206;48.782;9.252;2023-09-18T01:40:23;23.00;37.90
439;DHT22;206;48.782;9.252;2023-09-18T01:42:49;23.00;38.00
439;DHT22;206;48.782;9.252;2023-09-18T01:45:15;23.00;37.60
439;DHT22;206;48.782;9.252;2023-09-18T01:47:41;23.10;37.00
439;DHT22;206;48.782;9.252;2023-09-18T01:50:07;23.10;36.50
439;DHT22;206;48.782;9.252;2023-09-18T01:52:32;23.30;35.40
439;DHT22;206;48.782;9.252;2023-09-18T01:55:00;23.30;35.40
439;DHT22;206;48.782;9.252;2023-09-18T01:57:26;23.30;35.80
439;DHT22;206;48.782;9.252;2023-09-18T01:59:51;23.40;34.80
439;DHT22;206;48.782;9.252;2023-09-18T02:02:17;23.40;31.10
439;DHT22;206;48.782;9.252;2023-09-18T02:04:42;23.60;31.30
439;DHT22;206;48.782;9.252;2023-09-18T02:07:09;23.60;30.00
439;DHT22;206;48.782;9.252;2023-09-18T02:09:34;23.80;29.40
439;DHT22;206;48.782;9.252;2023-09-18T02:12:00;23.90;29.30
439;DHT22;206;48.782;9.252;2023-09-18T02:14:25;24.00;28.50
439;DHT22;206;48.782;9.252;2023-09-18T02:16:51;24.10;29.00
439;DHT22;206;48.782;9.252;2023-09-18T02:19:17;24.10;30.20
439;DHT22;206;48.782;9.252;2023-09-18T02:21:43;24.10;32.80
439;DHT22;206;48.782;9.252;2023-09-18T02:24:09;24.20;34.50
439;DHT22;206;48.782;9.252;2023-09-18T02:26:35;24.10;35.40
439;DHT22;206;48.782;9.252;2023-09-18T02:29:05;24.10;36.10
439;DHT22;206;48.782;9.252;2023-09-18T02:31:31;23.90;36.80
439;DHT22;206;48.782;9.252;2023-09-18T02:33:56;23.90;36.70
439;DHT22;206;48.782;9.252;2023-09-18T02:36:22;23.90;35.90
439;DHT22;206;48.782;9.252;2023-09-18T02:38:48;23.90;36.70
439;DHT22;206;48.782;9.252;2023-09-18T02:41:13;23.90;37.30
439;DHT22;206;48.782;9.252;2023-09-18T02:43:39;23.90;38.10
439;DHT22;206;48.782;9.252;2023-09-18T02:46:05;23.80;38.80
439;DHT22;206;48.782;9.252;2023-09-18T02:48:31;23.80;39.90
439;DHT22;206;48.782;9.252;2023-09-18T02:50:58;23.70;39.90
439;DHT22;206;48.782;9.252;2023-09-18T02:53:24;23.70;40.90
439;DHT22;206;48.782;9.252;2023-09-18T02:55:54;23.70;40.90
439;DHT22;206;48.782;9.252;2023-09-18T02:58:20;23.70;41.50
439;DHT22;206;48.782;9.252;2023-09-18T03:00:49;23.60;41.50
439;DHT22;206;48.782;9.252;2023-09-18T03:03:15;23.40;43.20
439;DHT22;206;48.782;9.252;2023-09-18T03:05:41;23.30;43.40
439;DHT22;206;48.782;9.252;2023-09-18T03:08:08;23.10;41.00
439;DHT22;206;48.782;9.252;2023-09-18T03:10:35;23.10;40.60
439;DHT22;206;48.782;9.252;2023-09-18T03:13:04;23.00;39.70
439;DHT22;206;48.782;9.252;2023-09-18T03:15:31;23.10;40.30
439;DHT22;206;48.782;9.252;2023-09-18T03:17:58;23.10;39.80
439;DHT22;206;48.782;9.252;2023-09-18T03:20:25;23.10;41.00
439;DHT22;206;48.782;9.252;2023-09-18T03:23:00;23.10;41.40
439;DHT22;206;48.782;9.252;2023-09-18T03:25:26;22.90;41.60
439;DHT22;206;48.782;9.252;2023-09-18T03:27:53;22.90;42.10
439;DHT22;206;48.782;9.252;2023-09-18T03:30:19;22.90;42.60
439;DHT22;206;48.782;9.252;2023-09-18T03:32:45;22.90;43.10
439;DHT22;206;48.782;9.252;2023-09-18T03:35:11;22.90;43.40
439;DHT22;206;48.782;9.252;2023-09-18T03:37:50;22.80;43.20
439;DHT22;206;48.782;9.252;2023-09-18T03:40:17;22.80;43.40
439;DHT22;206;48.782;9.252;2023-09-18T03:42:44;22.90;43.80
439;DHT22;206;48.782;9.252;2023-09-18T03:45:10;22.80;43.70
439;DHT22;206;48.782;9.252;2023-09-18T03:47:40;22.80;43.70
439;DHT22;206;48.782;9.252;2023-09-18T03:50:07;22.80;44.60
439;DHT22;206;48.782;9.252;2023-09-18T03:52:33;22.90;45.30
439;DHT22;206;48.782;9.252;2023-09-18T03:54:59;22.90;46.40
439;DHT22;206;48.782;9.252;2023-09-18T03:57:24;22.90;47.10
439;DHT22;206;48.782;9.252;2023-09-18T03:59:50;22.90;48.10
439;DHT22;206;48.782;9.252;2023-09-18T04:02:16;22.90;48.10
439;DHT22;206;48.782;9.252;2023-09-18T04:04:41;22.90;48.70
439;DHT22;206;48.782;9.252;2023-09-18T04:07:08;22.80;49.00
439;DHT22;206;48.782;9.252;2023-09-18T04:09:33;22.70;49.60
439;DHT22;206;48.782;9.252;2023-09-18T04:12:00;22.60;48.90
439;DHT22;206;48.782;9.252;2023-09-18T04:14:26;22.50;47.50
439;DHT22;206;48.782;9.252;2023-09-18T04:16:52;22.50;45.80
439;DHT22;206;48.782;9.252;2023-09-18T04:19:17;22.60;45.00
439;DHT22;206;48.782;9.252;2023-09-18T04:21:43;22.60;45.00
439;DHT22;206;48.782;9.252;2023-09-18T04:24:09;22.50;43.60
439;DHT22;206;48.782;9.252;2023-09-18T04:26:34;22.50;42.50
439;DHT22;206;48.782;9.252;2023-09-18T04:29:00;22.50;42.10
439;DHT22;206;48.782;9.252;2023-09-18T04:31:27;22.60;40.90
439;DHT22;206;48.782;9.252;2023-09-18T04:33:53;22.70;40.30
439;DHT22;206;48.782;9.252;2023-09-18T04:36:19;22.70;40.30
439;DHT22;206;48.782;9.252;2023-09-18T04:38:48;22.80;40.30
439;DHT22;206;48.782;9.252;2023-09-18T04:41:14;22.90;39.90
439;DHT22;206;48.782;9.252;2023-09-18T04:43:40;22.80;39.10
439;DHT22;206;48.782;9.252;2023-09-18T04:46:06;22.80;39.20
439;DHT22;206;48.782;9.252;2023-09-18T04:48:32;22.80;38.80
439;DHT22;206;48.782;9.252;2023-09-18T04:50:59;22.80;39.00
439;DHT22;206;48.782;9.252;2023-09-18T04:53:25;22.80;38.30
439;DHT22;206;48.782;9.252;2023-09-18T04:55:52;22.80;38.00
439;DHT22;206;48.782;9.252;2023-09-18T04:58:18;22.90;38.50
439;DHT22;206;48.782;9.252;2023-09-18T05:00:44;22.90;40.80
439;DHT22;206;48.782;9.252;2023-09-18T05:03:10;23.00;41.30
439;DHT22;206;48.782;9.252;2023-09-18T05:05:36;22.90;41.80
439;DHT22;206;48.782;9.252;2023-09-18T05:08:06;22.80;43.30
439;DHT22;206;48.782;9.252;2023-09-18T05:10:36;22.70;44.60
439;DHT22;206;48.782;9.252;2023-09-18T05:13:02;22.70;45.10
439;DHT22;206;48.782;9.252;2023-09-18T05:15:28;22.60;46.90
439;DHT22;206;48.782;9.252;2023-09-18T05:17:55;22.60;47.40
439;DHT22;206;48.782;9.252;2023-09-18T05:20:23;22.60;47.60
439;DHT22;206;48.782;9.252;2023-09-18T05:22:50;22.50;47.90
439;DHT22;206;48.782;9.252;2023-09-18T05:25:18;22.50;47.70
439;DHT22;206;48.782;9.252;2023-09-18T05:27:44;22.50;47.50
439;DHT22;206;48.782;9.252;2023-09-18T05:30:14;22.50;44.90
439;DHT22;206;48.782;9.252;2023-09-18T05:32:41;22.50;44.90
439;DHT22;206;48.782;9.252;2023-09-18T05:35:07;22.50;44.90
439;DHT22;206;48.782;9.252;2023-09-18T05:37:36;22.50;44.90
439;DHT22;206;48.782;9.252;2023-09-18T05:40:06;22.40;44.90
439;DHT22;206;48.782;9.252;2023-09-18T05:42:35;22.40;45.60
439;DHT22;206;48.782;9.252;2023-09-18T05:45:01;22.20;46.40
439;DHT22;206;48.782;9.252;2023-09-18T05:47:27;22.20;47.10
439;DHT22;206;48.782;9.252;2023-09-18T05:49:55;22.20;47.80
439;DHT22;206;48.782;9.252;2023-09-18T05:52:20;22.20;47.30
439;DHT22;206;48.782;9.252;2023-09-18T05:54:47;22.40;48.00
439;DHT22;206;48.782;9.252;2023-09-18T05:57:13;22.30;47.10
439;DHT22;206;48.782;9.252;2023-09-18T05:59:39;22.30;47.70
439;DHT22;206;48.782;9.252;2023-09-18T06:02:05;22.30;46.60
439;DHT22;206;48.782;9.252;2023-09-18T06:04:31;22.40;47.10
439;DHT22;206;48.782;9.252;2023-09-18T06:06:56;22.40;47.50
439;DHT22;206;48.782;9.252;2023-09-18T06:09:23;22.30;44.70
439;DHT22;206;48.782;9.252;2023-09-18T06:11:48;22.40;44.80
439;DHT22;206;48.782;9.252;2023-09-18T06:14:14;22.40;44.80
439;DHT22;206;48.782;9.252;2023-09-18T06:16:39;22.40;44.80
439;DHT22;206;48.782;9.252;2023-09-18T06:19:05;22.40;44.40
439;DHT22;206;48.782;9.252;2023-09-18T06:21:30;22.40;44.10
439;DHT22;206;48.782;9.252;2023-09-18T06:23:56;22.30;43.70
439;DHT22;206;48.782;9.252;2023-09-18T06:26:22;22.40;43.70
439;DHT22;206;48.782;9.252;2023-09-18T06:28:47;22.40;43.20
439;DHT22;206;48.782;9.252;2023-09-18T06:31:13;22.50;43.10
439;DHT22;206;48.782;9.252;2023-09-18T06:33:39;22.50;42.60
439;DHT22;206;48.782;9.252;2023-09-18T06:36:05;22.50;42.70
439;DHT22;206;48.782;9.252;2023-09-18T06:38:30;22.60;43.40
439;DHT22;206;48.782;9.252;2023-09-18T06:40:56;22.60;44.90
439;DHT22;206;48.782;9.252;2023-09-18T06:43:21;22.70;45.00
439;DHT22;206;48.782;9.252;2023-09-18T06:45:48;22.70;45.00
439;DHT22;206;48.782;9.252;2023-09-18T06:48:14;22.70;45.10
439;DHT22;206;48.782;9.252;2023-09-18T06:50:41;22.80;46.30
439;DHT22;206;48.782;9.252;2023-09-18T06:53:06;22.80;46.90
439;DHT22;206;48.782;9.252;2023-09-18T06:55:32;22.80;46.90
439;DHT22;206;48.782;9.252;2023-09-18T06:57:57;22.80;47.00
439;DHT22;206;48.782;9.252;2023-09-18T07:00:23;22.70;46.80
439;DHT22;206;48.782;9.252;2023-09-18T07:02:49;22.70;47.60
439;DHT22;206;48.782;9.252;2023-09-18T07:05:15;22.70;47.60
439;DHT22;206;48.782;9.252;2023-09-18T07:07:40;22.80;49.00
439;DHT22;206;48.782;9.252;2023-09-18T07:10:06;22.70;47.80
439;DHT22;206;48.782;9.252;2023-09-18T07:12:32;22.80;48.30
439;DHT22;206;48.782;9.252;2023-09-18T07:15:02;22.80;47.90
439;DHT22;206;48.782;9.252;2023-09-18T07:17:28;22.80;49.00
439;DHT22;206;48.782;9.252;2023-09-18T07:19:54;22.80;48.60
439;DHT22;206;48.782;9.252;2023-09-18T07:22:20;22.80;47.90
439;DHT22;206;48.782;9.252;2023-09-18T07:24:46;22.90;47.10
439;DHT22;206;48.782;9.252;2023-09-18T07:27:11;22.80;49.50
439;DHT22;206;48.782;9.252;2023-09-18T07:29:37;22.80;47.90
439;DHT22;206;48.782;9.252;2023-09-18T07:32:03;22.70;49.00
439;DHT22;206;48.782;9.252;2023-09-18T07:34:29;22.70;47.70
439;DHT22;206;48.782;9.252;2023-09-18T07:36:54;22.70;47.90
439;DHT22;206;48.782;9.252;2023-09-18T07:39:22;22.80;48.80
439;DHT22;206;48.782;9.252;2023-09-18T07:41:47;22.80;48.40
439;DHT22;206;48.782;9.252;2023-09-18T07:44:20;22.80;48.80
439;DHT22;206;48.782;9.252;2023-09-18T07:46:46;22.90;48.70
439;DHT22;206;48.782;9.252;2023-09-18T07:49:11;22.80;47.50
439;DHT22;206;48.782;9.252;2023-09-18T07:51:37;22.90;47.00
439;DHT22;206;48.782;9.252;2023-09-18T07:54:03;22.90;47.40
439;DHT22;206;48.782;9.252;2023-09-18T07:56:29;22.90;47.20
439;DHT22;206;48.782;9.252;2023-09-18T07:58:58;23.00;45.30
439;DHT22;206;48.782;9.252;2023-09-18T08:01:24;23.00;44.10
439;DHT22;206;48.782;9.252;2023-09-18T08:03:50;23.10;45.10
439;DHT22;206;48.782;9.252;2023-09-18T08:06:15;23.20;44.90
439;DHT22;206;48.782;9.252;2023-09-18T08:08:44;23.30;44.90
439;DHT22;206;48.782;9.252;2023-09-18T08:11:09;23.40;42.20
439;DHT22;206;48.782;9.252;2023-09-18T08:13:35;23.40;39.20
439;DHT22;206;48.782;9.252;2023-09-18T08:16:01;23.40;38.60
439;DHT22;206;48.782;9.252;2023-09-18T08:18:27;23.50;38.50
439;DHT22;206;48.782;9.252;2023-09-18T08:20:53;23.60;39.10
439;DHT22;206;48.782;9.252;2023-09-18T08:23:19;23.60;36.60
439;DHT22;206;48.782;9.252;2023-09-18T08:25:45;23.60;38.60
439;DHT22;206;48.782;9.252;2023-09-18T08:28:12;23.70;37.90
439;DHT22;206;48.782;9.252;2023-09-18T08:30:40;23.60;37.30
439;DHT22;206;48.782;9.252;2023-09-18T08:33:06;23.70;38.20
439;DHT22;206;48.782;9.252;2023-09-18T08:35:31;23.70;38.40
439;DHT22;206;48.782;9.252;2023-09-18T08:37:57;23.80;38.60
439;DHT22;206;48.782;9.252;2023-09-18T08:40:23;23.70;37.50
439;DHT22;206;48.782;9.252;2023-09-18T08:42:52;23.80;37.30
439;DHT22;206;48.782;9.252;2023-09-18T08:45:52;23.70;35.70
439;DHT22;206;48.782;9.252;2023-09-18T08:48:19;23.70;36.70
439;DHT22;206;48.782;9.252;2023-09-18T08:50:45;23.70;36.70
439;DHT22;206;48.782;9.252;2023-09-18T08:53:12;23.70;35.70
439;DHT22;206;48.782;9.252;2023-09-18T08:55:38;23.80;35.80
439;DHT22;206;48.782;9.252;2023-09-18T08:58:05;23.70;36.60
439;DHT22;206;48.782;9.252;2023-09-18T09:00:31;23.70;36.60
439;DHT22;206;48.782;9.252;2023-09-18T09:02:57;23.60;37.00
439;DHT22;206;48.782;9.252;2023-09-18T09:05:23;23.50;38.90
439;DHT22;206;48.782;9.252;2023-09-18T09:07:49;23.40;40.40
439;DHT22;206;48.782;9.252;2023-09-18T09:10:16;23.30;42.40
439;DHT22;206;48.782;9.252;2023-09-18T09:12:48;23.20;44.00
439;DHT22;206;48.782;9.252;2023-09-18T09:15:14;23.20;44.30
439;DHT22;206;48.782;9.252;2023-09-18T09:17:41;23.10;43.80
439;DHT22;206;48.782;9.252;2023-09-18T09:20:12;23.10;42.80
439;DHT22;206;48.782;9.252;2023-09-18T09:22:39;23.00;42.80
439;DHT22;206;48.782;9.252;2023-09-18T09:27:51;22.80;43.60
439;DHT22;206;48.782;9.252;2023-09-18T09:30:22;22.80;44.20
439;DHT22;206;48.782;9.252;2023-09-18T09:32:50;22.70;46.00
439;DHT22;206;48.782;9.252;2023-09-18T09:35:27;22.60;46.80
439;DHT22;206;48.782;9.252;2023-09-18T09:37:57;22.60;47.90
439;DHT22;206;48.782;9.252;2023-09-18T09:40:24;22.60;47.80
439;DHT22;206;48.782;9.252;2023-09-18T09:42:54;22.60;47.60
439;DHT22;206;48.782;9.252;2023-09-18T09:45:27;22.50;46.60
439;DHT22;206;48.782;9.252;2023-09-18T09:47:54;22.40;48.50
439;DHT22;206;48.782;9.252;2023-09-18T09:50:20;22.20;47.90
439;DHT22;206;48.782;9.252;2023-09-18T09:52:48;22.20;49.70
439;DHT22;206;48.782;9.252;2023-09-18T09:57:51;22.20;50.70
439;DHT22;206;48.782;9.252;2023-09-18T10:00:17;22.20;51.90
439;DHT22;206;48.782;9.252;2023-09-18T10:03:04;22.20;52.90
439;DHT22;206;48.782;9.252;2023-09-18T10:05:35;22.40;54.70
439;DHT22;206;48.782;9.252;2023-09-18T10:08:14;22.50;54.20
439;DHT22;206;48.782;9.252;2023-09-18T10:10:55;22.60;53.80
439;DHT22;206;48.782;9.252;2023-09-18T10:13:28;22.70;53.10
439;DHT22;206;48.782;9.252;2023-09-18T10:15:58;22.70;51.60
439;DHT22;206;48.782;9.252;2023-09-18T10:18:40;22.70;52.00
439;DHT22;206;48.782;9.252;2023-09-18T10:24:22;22.80;51.00
439;DHT22;206;48.782;9.252;2023-09-18T10:26:59;22.80;50.40
439;DHT22;206;48.782;9.252;2023-09-18T10:29:26;22.70;49.60
439;DHT22;206;48.782;9.252;2023-09-18T10:31:53;22.70;49.10
439;DHT22;206;48.782;9.252;2023-09-18T10:34:20;22.70;50.40
439;DHT22;206;48.782;9.252;2023-09-18T10:36:47;22.70;50.40
439;DHT22;206;48.782;9.252;2023-09-18T10:39:13;22.80;51.10
439;DHT22;206;48.782;9.252;2023-09-18T10:41:47;22.70;49.60
439;DHT22;206;48.782;9.252;2023-09-18T10:44:14;22.70;50.60
439;DHT22;206;48.782;9.252;2023-09-18T10:46:39;22.70;51.90
439;DHT22;206;48.782;9.252;2023-09-18T10:49:05;22.60;52.00
439;DHT22;206;48.782;9.252;2023-09-18T10:51:32;22.60;53.30
439;DHT22;206;48.782;9.252;2023-09-18T10:54:02;22.60;53.90
439;DHT22;206;48.782;9.252;2023-09-18T10:56:28;22.60;52.90
439;DHT22;206;48.782;9.252;2023-09-18T10:59:00;22.40;51.20
439;DHT22;206;48.782;9.252;2023-09-18T11:01:29;22.30;51.30
439;DHT22;206;48.782;9.252;2023-09-18T11:03:59;22.30;51.00
439;DHT22;206;48.782;9.252;2023-09-18T11:06:27;22.20;48.40
439;DHT22;206;48.782;9.252;2023-09-18T11:09:02;22.30;49.60
439;DHT22;206;48.782;9.252;2023-09-18T11:11:30;22.10;49.50
439;DHT22;206;48.782;9.252;2023-09-18T11:13:58;22.00;50.50
439;DHT22;206;48.782;9.252;2023-09-18T11:21:24;21.90;51.50
439;DHT22;206;48.782;9.252;2023-09-18T11:23:58;22.10;52.50
439;DHT22;206;48.782;9.252;2023-09-18T11:26:28;22.10;51.50
439;DHT22;206;48.782;9.252;2023-09-18T11:28:54;22.20;52.40
439;DHT22;206;48.782;9.252;2023-09-18T11:31:20;22.30;52.50
439;DHT22;206;48.782;9.252;2023-09-18T11:33:47;22.40;52.80
439;DHT22;206;48.782;9.252;2023-09-18T11:38:55;22.50;53.50
439;DHT22;206;48.782;9.252;2023-09-18T11:41:28;22.40;52.80
439;DHT22;206;48.782;9.252;2023-09-18T11:46:46;22.30;49.40
439;DHT22;206;48.782;9.252;2023-09-18T11:49:13;22.40;50.70
439;DHT22;206;48.782;9.252;2023-09-18T11:51:39;22.40;51.20
439;DHT22;206;48.782;9.252;2023-09-18T11:54:06;22.50;52.80
439;DHT22;206;48.782;9.252;2023-09-18T11:56:35;22.50;54.00
439;DHT22;206;48.782;9.252;2023-09-18T11:59:01;22.60;52.70
439;DHT22;206;48.782;9.252;2023-09-18T12:01:30;22.60;53.00
439;DHT22;206;48.782;9.252;2023-09-18T12:04:03;22.60;49.40
439;DHT22;206;48.782;9.252;2023-09-18T12:06:34;22.60;48.40
439;DHT22;206;48.782;9.252;2023-09-18T12:08:59;22.70;47.60
439;DHT22;206;48.782;9.252;2023-09-18T12:11:25;22.80;48.50
439;DHT22;206;48.782;9.252;2023-09-18T12:13:51;22.80;49.40
439;DHT22;206;48.782;9.252;2023-09-18T12:16:17;22.90;50.30
439;DHT22;206;48.782;9.252;2023-09-18T12:18:48;22.90;49.70
439;DHT22;206;48.782;9.252;2023-09-18T12:21:15;22.90;49.50
439;DHT22;206;48.782;9.252;2023-09-18T12:23:43;22.90;47.70
439;DHT22;206;48.782;9.252;2023-09-18T12:26:11;22.80;47.50
439;DHT22;206;48.782;9.252;2023-09-18T12:28:44;22.70;47.10
439;DHT22;206;48.782;9.252;2023-09-18T12:31:13;22.70;46.80
439;DHT22;206;48.782;9.252;2023-09-18T12:33:40;22.60;46.30
439;DHT22;206;48.782;9.252;2023-09-18T12:36:07;22.50;45.90
439;DHT22;206;48.782;9.252;2023-09-18T12:38:34;22.50;46.40
439;DHT22;206;48.782;9.252;2023-09-18T12:41:01;22.50;47.00
439;DHT22;206;48.782;9.252;2023-09-18T12:43:37;22.40;47.50
439;DHT22;206;48.782;9.252;2023-09-18T12:46:05;22.60;48.40
439;DHT22;206;48.782;9.252;2023-09-18T12:48:31;22.70;48.00
439;DHT22;206;48.782;9.252;2023-09-18T12:51:03;22.80;47.10
439;DHT22;206;48.782;9.252;2023-09-18T12:53:29;22.90;46.70
439;DHT22;206;48.782;9.252;2023-09-18T12:55:54;23.00;47.30
439;DHT22;206;48.782;9.252;2023-09-18T12:58:30;23.20;47.70
439;DHT22;206;48.782;9.252;2023-09-18T13:00:56;23.40;45.70
439;DHT22;206;48.782;9.252;2023-09-18T13:03:22;23.60;45.10
439;DHT22;206;48.782;9.252;2023-09-18T13:05:48;23.70;43.50
439;DHT22;206;48.782;9.252;2023-09-18T13:08:14;23.70;42.10
439;DHT22;206;48.782;9.252;2023-09-18T13:10:42;23.80;43.50
439;DHT22;206;48.782;9.252;2023-09-18T13:13:19;24.00;43.30
439;DHT22;206;48.782;9.252;2023-09-18T13:15:45;24.20;41.00
439;DHT22;206;48.782;9.252;2023-09-18T13:18:13;24.20;39.30
439;DHT22;206;48.782;9.252;2023-09-18T13:20:39;24.20;39.60
439;DHT22;206;48.782;9.252;2023-09-18T13:23:06;24.20;39.60
439;DHT22;206;48.782;9.252;2023-09-18T13:25:37;24.20;39.70
439;DHT22;206;48.782;9.252;2023-09-18T13:28:07;24.30;39.00
439;DHT22;206;48.782;9.252;2023-09-18T13:30:33;24.30;38.30
439;DHT22;206;48.782;9.252;2023-09-18T13:33:08;24.40;38.20
439;DHT22;206;48.782;9.252;2023-09-18T13:35:40;24.40;37.20
439;DHT22;206;48.782;9.252;2023-09-18T13:38:07;24.50;36.70
439;DHT22;206;48.782;9.252;2023-09-18T13:40:43;24.60;37.00
439;DHT22;206;48.782;9.252;2023-09-18T13:43:10;24.60;36.50
439;DHT22;206;48.782;9.252;2023-09-18T13:45:36;24.70;36.00
439;DHT22;206;48.782;9.252;2023-09-18T13:48:03;24.80;34.70
439;DHT22;206;48.782;9.252;2023-09-18T13:50:30;24.70;33.50
439;DHT22;206;48.782;9.252;2023-09-18T13:52:55;24.70;34.40
439;DHT22;206;48.782;9.252;2023-09-18T13:55:21;24.70;34.80
439;DHT22;206;48.782;9.252;2023-09-18T13:57:47;24.70;34.30
439;DHT22;206;48.782;9.252;2023-09-18T14:00:13;24.70;33.90
439;DHT22;206;48.782;9.252;2023-09-18T14:02:39;24.80;33.40
439;DHT22;206;48.782;9.252;2023-09-18T14:05:06;24.80;33.50
439;DHT22;206;48.782;9.252;2023-09-18T14:07:31;24.90;33.60
439;DHT22;206;48.782;9.252;2023-09-18T14:09:57;24.90;32.00
439;DHT22;206;48.782;9.252;2023-09-18T14:12:24;24.90;32.10
439;DHT22;206;48.782;9.252;2023-09-18T14:14:49;25.00;32.30
439;DHT22;206;48.782;9.252;2023-09-18T14:17:16;25.00;31.40
439;DHT22;206;48.782;9.252;2023-09-18T14:19:43;25.00;31.10
439;DHT22;206;48.782;9.252;2023-09-18T14:22:10;25.00;30.00
439;DHT22;206;48.782;9.252;2023-09-18T14:24:35;25.00;30.80
439;DHT22;206;48.782;9.252;2023-09-18T14:27:02;25.00;30.00
439;DHT22;206;48.782;9.252;2023-09-18T14:29:28;25.00;29.70
439;DHT22;206;48.782;9.252;2023-09-18T14:31:56;25.00;29.50
439;DHT22;206;48.782;9.252;2023-09-18T14:34:21;25.00;28.90
439;DHT22;206;48.782;9.252;2023-09-18T14:36:47;25.10;27.60
439;DHT22;206;48.782;9.252;2023-09-18T14:39:12;25.10;27.70
439;DHT22;206;48.782;9.252;2023-09-18T14:41:39;25.10;27.70
439;DHT22;206;48.782;9.252;2023-09-18T14:44:06;25.10;27.60
439;DHT22;206;48.782;9.252;2023-09-18T14:46:34;25.10;28.10
439;DHT22;206;48.782;9.252;2023-09-18T14:49:03;25.10;27.80
439;DHT22;206;48.782;9.252;2023-09-18T14:51:29;25.10;28.00
439;DHT22;206;48.782;9.252;2023-09-18T14:53:58;25.20;28.10
439;DHT22;206;48.782;9.252;2023-09-18T14:56:24;25.20;27.30
439;DHT22;206;48.782;9.252;2023-09-18T14:58:50;25.20;27.30
439;DHT22;206;48.782;9.252;2023-09-18T15:01:17;25.30;27.80
439;DHT22;206;48.782;9.252;2023-09-18T15:03:44;25.30;27.40
439;DHT22;206;48.782;9.252;2023-09-18T15:06:14;25.30;27.40
439;DHT22;206;48.782;9.252;2023-09-18T15:08:40;25.30;27.40
439;DHT22;206;48.782;9.252;2023-09-18T15:11:05;25.30;27.40
439;DHT22;206;48.782;9.252;2023-09-18T15:13:32;25.30;27.40
439;DHT22;206;48.782;9.252;2023-09-18T15:16:00;25.30;27.00
439;DHT22;206;48.782;9.252;2023-09-18T15:18:25;25.20;26.70
439;DHT22;206;48.782;9.252;2023-09-18T15:20:51;25.20;27.10
439;DHT22;206;48.782;9.252;2023-09-18T15:23:23;25.20;27.30
439;DHT22;206;48.782;9.252;2023-09-18T15:25:50;25.10;27.30
439;DHT22;206;48.782;9.252;2023-09-18T15:28:19;25.10;27.30
439;DHT22;206;48.782;9.252;2023-09-18T15:30:46;25.10;27.30
439;DHT22;206;48.782;9.252;2023-09-18T15:33:12;25.10;26.90
439;DHT22;206;48.782;9.252;2023-09-18T15:35:38;25.00;27.10
439;DHT22;206;48.782;9.252;2023-09-18T15:38:04;25.00;27.20
439;DHT22;206;48.782;9.252;2023-09-18T15:40:32;25.00;27.20
439;DHT22;206;48.782;9.252;2023-09-18T15:42:58;25.00;27.20
439;DHT22;206;48.782;9.252;2023-09-18T15:45:24;25.00;27.20
439;DHT22;206;48.782;9.252;2023-09-18T15:47:49;25.00;27.20
439;DHT22;206;48.782;9.252;2023-09-18T15:50:15;24.90;27.20
439;DHT22;206;48.782;9.252;2023-09-18T15:52:41;24.90;27.20
439;DHT22;206;48.782;9.252;2023-09-18T15:55:07;25.00;27.20
439;DHT22;206;48.782;9.252;2023-09-18T15:57:34;24.90;27.20
439;DHT22;206;48.782;9.252;2023-09-18T16:00:01;24.90;27.20
439;DHT22;206;48.782;9.252;2023-09-18T16:02:30;24.90;27.20
439;DHT22;206;48.782;9.252;2023-09-18T16:04:59;24.90;26.90
439;DHT22;206;48.782;9.252;2023-09-18T16:07:26;24.90;27.20
439;DHT22;206;48.782;9.252;2023-09-18T16:09:52;24.90;26.90
439;DHT22;206;48.782;9.252;2023-09-18T16:12:20;24.90;26.80
439;DHT22;206;48.782;9.252;2023-09-18T16:14:47;24.90;26.90
439;DHT22;206;48.782;9.252;2023-09-18T16:17:12;24.80;27.10
439;DHT22;206;48.782;9.252;2023-09-18T16:19:38;24.80;27.10
439;DHT22;206;48.782;9.252;2023-09-18T16:22:04;24.70;27.10
439;DHT22;206;48.782;9.252;2023-09-18T16:24:30;24.70;26.70
439;DHT22;206;48.782;9.252;2023-09-18T16:26:55;24.70;26.30
439;DHT22;206;48.782;9.252;2023-09-18T16:29:24;24.70;26.40
439;DHT22;206;48.782;9.252;2023-09-18T16:31:50;24.60;27.00
439;DHT22;206;48.782;9.252;2023-09-18T16:34:16;24.60;27.00
439;DHT22;206;48.782;9.252;2023-09-18T16:36:42;24.60;27.00
439;DHT22;206;48.782;9.252;2023-09-18T16:39:07;24.60;27.00
439;DHT22;206;48.782;9.252;2023-09-18T16:41:33;24.50;26.90
439;DHT22;206;48.782;9.252;2023-09-18T16:43:59;24.40;26.90
439;DHT22;206;48.782;9.252;2023-09-18T16:46:27;24.40;26.90
439;DHT22;206;48.782;9.252;2023-09-18T16:48:53;24.30;26.80
439;DHT22;206;48.782;9.252;2023-09-18T16:51:18;24.30;26.80
439;DHT22;206;48.782;9.252;2023-09-18T16:53:44;24.20;27.20